sensor_id;sensor_type;location;lat;lon;timestamp;pressure;altitude;pressure_sealevel;temperature;humidity
64352;BME280;50680;52.626;-8.668;2023-02-03T00:00:04;102774.66;;;9.12;100.00
64352;BME280;50680;52.626;-8.668;2023-02-03T00:02:32;102784.25;;;9.13;100.00
64352;BME280;50680;52.626;-8.668;2023-02-03T00:04:59;102794.69;;;9.14;100.00
64352;BME280;50680;52.626;-8.668;2023-02-03T00:07:25;102792.88;;;9.18;100.00
64352;BME280;50680;52.626;-8.668;2023-02-03T00:09:54;102797.25;;;9.17;100.00
64352;BME280;50680;52.626;-8.668;2023-02-03T00:12:21;102785.91;;;9.17;100.00
64352;BME280;50680;52.626;-8.668;2023-02-03T00:14:48;102789.44;;;9.16;100.00
64352;BME280;50680;52.626;-8.668;2023-02-03T00:17:14;102800.78;;;9.15;100.00
64352;BME280;50680;52.626;-8.668;2023-02-03T00:19:41;102800.78;;;9.15;100.00
64352;BME280;50680;52.626;-8.668;2023-02-03T00:22:08;102800.84;;;9.12;100.00
64352;BME280;50680;52.626;-8.668;2023-02-03T00:24:35;102798.28;;;9.10;100.00
64352;BME280;50680;52.626;-8.668;2023-02-03T00:27:02;102806.16;;;9.09;100.00
64352;BME280;50680;52.626;-8.668;2023-02-03T00:29:28;102817.47;;;9.11;100.00
64352;BME280;50680;52.626;-8.668;2023-02-03T00:31:55;102817.41;;;9.14;100.00
64352;BME280;50680;52.626;-8.668;2023-02-03T00:34:28;102824.25;;;9.21;100.00
64352;BME280;50680;52.626;-8.668;2023-02-03T00:36:56;102828.47;;;9.27;100.00
64352;BME280;50680;52.626;-8.668;2023-02-03T00:39:22;102824.97;;;9.29;100.00
64352;BME280;50680;52.626;-8.668;2023-02-03T00:41:49;102824.00;;;9.33;100.00
64352;BME280;50680;52.626;-8.668;2023-02-03T00:44:16;102824.78;;;9.37;100.00
64352;BME280;50680;52.626;-8.668;2023-02-03T00:46:43;102824.78;;;9.37;100.00
64352;BME280;50680;52.626;-8.668;2023-02-03T00:49:09;102834.31;;;9.39;100.00
64352;BME280;50680;52.626;-8.668;2023-02-03T00:51:36;102839.50;;;9.43;100.00
64352;BME280;50680;52.626;-8.668;2023-02-03T00:54:03;102845.63;;;9.43;100.00
64352;BME280;50680;52.626;-8.668;2023-02-03T00:56:30;102849.06;;;9.45;100.00
64352;BME280;50680;52.626;-8.668;2023-02-03T00:58:56;102854.31;;;9.45;100.00
64352;BME280;50680;52.626;-8.668;2023-02-03T01:01:23;102851.69;;;9.45;100.00
64352;BME280;50680;52.626;-8.668;2023-02-03T01:03:54;102856.94;;;9.44;100.00
64352;BME280;50680;52.626;-8.668;2023-02-03T01:06:21;102862.28;;;9.37;100.00
64352;BME280;50680;52.626;-8.668;2023-02-03T01:08:49;102864.94;;;9.36;100.00
64352;BME280;50680;52.626;-8.668;2023-02-03T01:11:21;102872.78;;;9.37;100.00
64352;BME280;50680;52.626;-8.668;2023-02-03T01:13:50;102875.34;;;9.40;100.00
64352;BME280;50680;52.626;-8.668;2023-02-03T01:16:18;102884.84;;;9.45;100.00
64352;BME280;50680;52.626;-8.668;2023-02-03T01:18:46;102889.16;;;9.49;100.00
64352;BME280;50680;52.626;-8.668;2023-02-03T01:21:19;102882.94;;;9.53;100.00
64352;BME280;50680;52.626;-8.668;2023-02-03T01:23:46;102886.38;;;9.55;100.00
64352;BME280;50680;52.626;-8.668;2023-02-03T01:26:16;102886.34;;;9.58;100.00
64352;BME280;50680;52.626;-8.668;2023-02-03T01:28:43;102881.94;;;9.58;100.00
64352;BME280;50680;52.626;-8.668;2023-02-03T01:31:13;102877.59;;;9.59;100.00
64352;BME280;50680;52.626;-8.668;2023-02-03T01:33:41;102879.31;;;9.60;100.00
64352;BME280;50680;52.626;-8.668;2023-02-03T01:36:12;102890.66;;;9.60;100.00
64352;BME280;50680;52.626;-8.668;2023-02-03T01:38:39;102888.88;;;9.63;100.00
64352;BME280;50680;52.626;-8.668;2023-02-03T01:41:12;102889.66;;;9.66;100.00
64352;BME280;50680;52.626;-8.668;2023-02-03T01:43:42;102893.97;;;9.69;100.00
64352;BME280;50680;52.626;-8.668;2023-02-03T01:46:32;102891.28;;;9.72;100.00
64352;BME280;50680;52.626;-8.668;2023-02-03T01:49:09;102890.38;;;9.74;100.00
64352;BME280;50680;52.626;-8.668;2023-02-03T01:51:39;102902.50;;;9.78;100.00
64352;BME280;50680;52.626;-8.668;2023-02-03T01:54:19;102894.72;;;9.75;100.00
64352;BME280;50680;52.626;-8.668;2023-02-03T01:56:54;102905.94;;;9.82;100.00
64352;BME280;50680;52.626;-8.668;2023-02-03T01:59:22;102895.38;;;9.85;100.00
64352;BME280;50680;52.626;-8.668;2023-02-03T02:01:52;102896.19;;;9.89;100.00
64352;BME280;50680;52.626;-8.668;2023-02-03T02:04:19;102900.53;;;9.90;100.00
64352;BME280;50680;52.626;-8.668;2023-02-03T02:06:49;102894.38;;;9.91;100.00
64352;BME280;50680;52.626;-8.668;2023-02-03T02:09:17;102898.75;;;9.92;100.00
64352;BME280;50680;52.626;-8.668;2023-02-03T02:11:46;102903.06;;;9.93;100.00
64352;BME280;50680;52.626;-8.668;2023-02-03T02:14:13;102895.22;;;9.93;100.00
64352;BME280;50680;52.626;-8.668;2023-02-03T02:16:44;102899.56;;;9.94;100.00
64352;BME280;50680;52.626;-8.668;2023-02-03T02:22:29;102906.53;;;9.95;100.00
64352;BME280;50680;52.626;-8.668;2023-02-03T02:36:08;102888.00;;;10.04;100.00
64352;BME280;50680;52.626;-8.668;2023-02-03T02:38:49;102887.06;;;10.05;100.00
64352;BME280;50680;52.626;-8.668;2023-02-03T02:42:10;102876.53;;;10.08;100.00
64352;BME280;50680;52.626;-8.668;2023-02-03T02:46:48;102882.75;;;10.04;100.00
64352;BME280;50680;52.626;-8.668;2023-02-03T02:51:49;102895.03;;;10.02;100.00
64352;BME280;50680;52.626;-8.668;2023-02-03T02:54:21;102900.34;;;9.99;100.00
64352;BME280;50680;52.626;-8.668;2023-02-03T02:56:56;102898.69;;;9.95;100.00
64352;BME280;50680;52.626;-8.668;2023-02-03T02:59:25;102897.84;;;9.91;100.00
64352;BME280;50680;52.626;-8.668;2023-02-03T03:01:51;102900.53;;;9.90;100.00
64352;BME280;50680;52.626;-8.668;2023-02-03T03:04:23;102901.44;;;9.87;100.00
64352;BME280;50680;52.626;-8.668;2023-02-03T03:06:57;102898.88;;;9.84;100.00
64352;BME280;50680;52.626;-8.668;2023-02-03T03:09:39;102903.22;;;9.87;100.00
64352;BME280;50680;52.626;-8.668;2023-02-03T03:12:18;102904.09;;;9.86;100.00
64352;BME280;50680;52.626;-8.668;2023-02-03T03:14:55;102915.47;;;9.86;100.00
64352;BME280;50680;52.626;-8.668;2023-02-03T03:17:27;102917.97;;;9.91;100.00
64352;BME280;50680;52.626;-8.668;2023-02-03T03:20:00;102917.09;;;9.92;100.00
64352;BME280;50680;52.626;-8.668;2023-02-03T03:22:32;102913.56;;;9.93;100.00
64352;BME280;50680;52.626;-8.668;2023-02-03T03:25:05;102922.28;;;9.95;100.00
64352;BME280;50680;52.626;-8.668;2023-02-03T03:27:39;102920.53;;;9.94;100.00
64352;BME280;50680;52.626;-8.668;2023-02-03T03:30:10;102925.81;;;9.92;100.00
64352;BME280;50680;52.626;-8.668;2023-02-03T03:32:40;102924.91;;;9.93;100.00
64352;BME280;50680;52.626;-8.668;2023-02-03T03:35:07;102924.97;;;9.90;100.00
64352;BME280;50680;52.626;-8.668;2023-02-03T03:37:47;102918.88;;;9.90;100.00
64352;BME280;50680;52.626;-8.668;2023-02-03T03:40:27;102915.41;;;9.88;100.00
64352;BME280;50680;52.626;-8.668;2023-02-03T03:43:04;102916.25;;;9.90;100.00
64352;BME280;50680;52.626;-8.668;2023-02-03T03:45:39;102915.34;;;9.91;100.00
64352;BME280;50680;52.626;-8.668;2023-02-03T03:51:07;102910.25;;;9.85;100.00
64352;BME280;50680;52.626;-8.668;2023-02-03T03:53:38;102901.75;;;9.73;100.00
64352;BME280;50680;52.626;-8.668;2023-02-03T03:56:09;102894.13;;;9.61;100.00
64352;BME280;50680;52.626;-8.668;2023-02-03T03:58:41;102898.78;;;9.47;100.00
64352;BME280;50680;52.626;-8.668;2023-02-03T04:01:12;102895.47;;;9.38;100.00
64352;BME280;50680;52.626;-8.668;2023-02-03T04:03:46;102893.81;;;9.33;100.00
64352;BME280;50680;52.626;-8.668;2023-02-03T04:06:15;102888.66;;;9.28;100.00
64352;BME280;50680;52.626;-8.668;2023-02-03T04:08:42;102895.72;;;9.25;100.00
64352;BME280;50680;52.626;-8.668;2023-02-03T04:11:08;102894.81;;;9.26;100.00
64352;BME280;50680;52.626;-8.668;2023-02-03T04:13:35;102897.41;;;9.27;100.00
64352;BME280;50680;52.626;-8.668;2023-02-03T04:16:02;102898.25;;;9.29;100.00
64352;BME280;50680;52.626;-8.668;2023-02-03T04:18:29;102900.78;;;9.32;100.00
64352;BME280;50680;52.626;-8.668;2023-02-03T04:20:56;102906.84;;;9.36;100.00
64352;BME280;50680;52.626;-8.668;2023-02-03T04:23:22;102905.88;;;9.41;100.00
64352;BME280;50680;52.626;-8.668;2023-02-03T04:25:49;102904.94;;;9.44;100.00
64352;BME280;50680;52.626;-8.668;2023-02-03T04:28:16;102904.03;;;9.47;100.00
64352;BME280;50680;52.626;-8.668;2023-02-03T04:30:43;102906.66;;;9.47;100.00
64352;BME280;50680;52.626;-8.668;2023-02-03T04:33:09;102902.31;;;9.44;100.00
64352;BME280;50680;52.626;-8.668;2023-02-03T04:35:36;102900.72;;;9.37;100.00
64352;BME280;50680;52.626;-8.668;2023-02-03T04:38:03;102895.69;;;9.26;100.00
64352;BME280;50680;52.626;-8.668;2023-02-03T04:40:30;102905.50;;;9.13;100.00
64352;BME280;50680;52.626;-8.668;2023-02-03T04:43:05;102892.75;;;8.96;100.00
64352;BME280;50680;52.626;-8.668;2023-02-03T04:45:32;102887.69;;;8.84;100.00
64352;BME280;50680;52.626;-8.668;2023-02-03T04:47:59;102892.31;;;8.70;100.00
64352;BME280;50680;52.626;-8.668;2023-02-03T04:50:25;102895.16;;;8.54;100.00
64352;BME280;50680;52.626;-8.668;2023-02-03T04:52:52;102894.50;;;8.40;100.00
64352;BME280;50680;52.626;-8.668;2023-02-03T04:55:19;102892.09;;;8.26;100.00
64352;BME280;50680;52.626;-8.668;2023-02-03T04:57:46;102893.09;;;8.16;100.00
64352;BME280;50680;52.626;-8.668;2023-02-03T05:00:13;102889.69;;;8.09;100.00
64352;BME280;50680;52.626;-8.668;2023-02-03T05:02:40;102896.75;;;8.02;100.00
64352;BME280;50680;52.626;-8.668;2023-02-03T05:05:07;102893.34;;;7.96;100.00
64352;BME280;50680;52.626;-8.668;2023-02-03T05:07:34;102886.47;;;7.90;100.00
64352;BME280;50680;52.626;-8.668;2023-02-03T05:10:00;102894.44;;;7.82;100.00
64352;BME280;50680;52.626;-8.668;2023-02-03T05:12:27;102891.88;;;7.75;100.00
64352;BME280;50680;52.626;-8.668;2023-02-03T05:14:54;102895.44;;;7.69;100.00
64352;BME280;50680;52.626;-8.668;2023-02-03T05:17:21;102893.81;;;7.62;100.00
64352;BME280;50680;52.626;-8.668;2023-02-03T05:19:47;102889.47;;;7.58;100.00
64352;BME280;50680;52.626;-8.668;2023-02-03T05:22:15;102900.84;;;7.55;100.00
64352;BME280;50680;52.626;-8.668;2023-02-03T05:24:42;102886.13;;;7.49;100.00
64352;BME280;50680;52.626;-8.668;2023-02-03T05:27:08;102897.44;;;7.48;100.00
64352;BME280;50680;52.626;-8.668;2023-02-03T05:29:35;102898.34;;;7.44;100.00
64352;BME280;50680;52.626;-8.668;2023-02-03T05:32:03;102901.00;;;7.40;100.00
64352;BME280;50680;52.626;-8.668;2023-02-03T05:34:30;102897.47;;;7.42;100.00
64352;BME280;50680;52.626;-8.668;2023-02-03T05:36:56;102899.22;;;7.43;100.00
64352;BME280;50680;52.626;-8.668;2023-02-03T05:39:24;102899.22;;;7.43;100.00
64352;BME280;50680;52.626;-8.668;2023-02-03T05:41:50;102901.84;;;7.43;100.00
64352;BME280;50680;52.626;-8.668;2023-02-03T05:44:25;102900.09;;;7.42;100.00
64352;BME280;50680;52.626;-8.668;2023-02-03T05:46:54;102896.72;;;7.34;100.00
64352;BME280;50680;52.626;-8.668;2023-02-03T05:49:22;102900.22;;;7.28;100.00
64352;BME280;50680;52.626;-8.668;2023-02-03T05:51:51;102909.00;;;7.23;100.00
64352;BME280;50680;52.626;-8.668;2023-02-03T05:54:18;102907.34;;;7.15;100.00
64352;BME280;50680;52.626;-8.668;2023-02-03T05:56:44;102902.13;;;7.12;100.00
64352;BME280;50680;52.626;-8.668;2023-02-03T05:59:11;102909.16;;;7.07;100.00
64352;BME280;50680;52.626;-8.668;2023-02-03T06:01:38;102901.41;;;6.98;100.00
64352;BME280;50680;52.626;-8.668;2023-02-03T06:04:05;102907.53;;;6.94;100.00
64352;BME280;50680;52.626;-8.668;2023-02-03T06:06:32;102916.28;;;6.87;100.00
64352;BME280;50680;52.626;-8.668;2023-02-03T06:09:00;102915.44;;;6.82;100.00
64352;BME280;50680;52.626;-8.668;2023-02-03T06:11:27;102915.50;;;6.77;100.00
64352;BME280;50680;52.626;-8.668;2023-02-03T06:13:55;102923.34;;;6.72;100.00
64352;BME280;50680;52.626;-8.668;2023-02-03T06:16:25;102917.28;;;6.73;100.00
64352;BME280;50680;52.626;-8.668;2023-02-03T06:18:53;102928.53;;;6.78;100.00
64352;BME280;50680;52.626;-8.668;2023-02-03T06:21:21;102921.53;;;6.84;100.00
64352;BME280;50680;52.626;-8.668;2023-02-03T06:23:48;102921.50;;;6.87;100.00
64352;BME280;50680;52.626;-8.668;2023-02-03T06:26:14;102919.78;;;6.87;100.00
64352;BME280;50680;52.626;-8.668;2023-02-03T06:28:41;102921.47;;;6.88;100.00
64352;BME280;50680;52.626;-8.668;2023-02-03T06:31:08;102912.81;;;6.86;100.00
64352;BME280;50680;52.626;-8.668;2023-02-03T06:33:35;102905.84;;;6.87;100.00
64352;BME280;50680;52.626;-8.668;2023-02-03T06:36:01;102917.97;;;6.94;100.00
64352;BME280;50680;52.626;-8.668;2023-02-03T06:38:28;102922.28;;;6.98;100.00
64352;BME280;50680;52.626;-8.668;2023-02-03T06:40:55;102917.03;;;7.04;100.00
64352;BME280;50680;52.626;-8.668;2023-02-03T06:43:22;102923.91;;;7.11;100.00
64352;BME280;50680;52.626;-8.668;2023-02-03T06:45:49;102929.91;;;7.20;100.00
64352;BME280;50680;52.626;-8.668;2023-02-03T06:48:16;102931.63;;;7.24;100.00
64352;BME280;50680;52.626;-8.668;2023-02-03T06:50:44;102937.66;;;7.29;100.00
64352;BME280;50680;52.626;-8.668;2023-02-03T06:53:13;102947.19;;;7.33;100.00
64352;BME280;50680;52.626;-8.668;2023-02-03T06:55:40;102937.69;;;7.26;100.00
64352;BME280;50680;52.626;-8.668;2023-02-03T06:58:07;102950.69;;;7.29;100.00
64352;BME280;50680;52.626;-8.668;2023-02-03T07:00:34;102946.34;;;7.28;100.00
64352;BME280;50680;52.626;-8.668;2023-02-03T07:03:01;102955.91;;;7.32;100.00
64352;BME280;50680;52.626;-8.668;2023-02-03T07:05:28;102953.19;;;7.41;100.00
64352;BME280;50680;52.626;-8.668;2023-02-03T07:07:55;102952.22;;;7.50;100.00
64352;BME280;50680;52.626;-8.668;2023-02-03T07:10:22;102949.59;;;7.51;100.00
64352;BME280;50680;52.626;-8.668;2023-02-03T07:12:49;102967.69;;;7.70;100.00
64352;BME280;50680;52.626;-8.668;2023-02-03T07:15:17;102966.72;;;7.79;100.00
64352;BME280;50680;52.626;-8.668;2023-02-03T07:17:46;102964.00;;;7.86;100.00
64352;BME280;50680;52.626;-8.668;2023-02-03T07:20:21;102970.00;;;7.96;100.00
64352;BME280;50680;52.626;-8.668;2023-02-03T07:22:52;102968.13;;;8.04;100.00
64352;BME280;50680;52.626;-8.668;2023-02-03T07:25:19;102986.34;;;8.12;100.00
64352;BME280;50680;52.626;-8.668;2023-02-03T07:27:46;102983.72;;;8.15;100.00
64352;BME280;50680;52.626;-8.668;2023-02-03T07:30:13;102986.25;;;8.20;100.00
64352;BME280;50680;52.626;-8.668;2023-02-03T07:32:40;102987.94;;;8.24;100.00
64352;BME280;50680;52.626;-8.668;2023-02-03T07:35:07;102980.97;;;8.24;100.00
64352;BME280;50680;52.626;-8.668;2023-02-03T07:37:34;102994.84;;;8.29;100.00
64352;BME280;50680;52.626;-8.668;2023-02-03T07:40:00;102991.34;;;8.31;100.00
64352;BME280;50680;52.626;-8.668;2023-02-03T07:42:27;102998.28;;;8.33;100.00
64352;BME280;50680;52.626;-8.668;2023-02-03T07:44:54;103003.47;;;8.35;100.00
64352;BME280;50680;52.626;-8.668;2023-02-03T07:47:21;103014.78;;;8.35;100.00
64352;BME280;50680;52.626;-8.668;2023-02-03T07:49:47;103014.78;;;8.35;100.00
64352;BME280;50680;52.626;-8.668;2023-02-03T07:52:14;103012.16;;;8.37;100.00
64352;BME280;50680;52.626;-8.668;2023-02-03T07:54:41;103033.88;;;8.42;100.00
64352;BME280;50680;52.626;-8.668;2023-02-03T07:57:08;103039.09;;;8.46;100.00
64352;BME280;50680;52.626;-8.668;2023-02-03T07:59:34;103037.31;;;8.50;100.00
64352;BME280;50680;52.626;-8.668;2023-02-03T08:02:01;103026.81;;;8.53;100.00
64352;BME280;50680;52.626;-8.668;2023-02-03T08:04:28;103030.16;;;8.61;100.00
64352;BME280;50680;52.626;-8.668;2023-02-03T08:06:55;103025.72;;;8.66;100.00
64352;BME280;50680;52.626;-8.668;2023-02-03T08:09:22;103038.75;;;8.73;100.00
64352;BME280;50680;52.626;-8.668;2023-02-03T08:11:48;103036.03;;;8.79;100.00
64352;BME280;50680;52.626;-8.668;2023-02-03T08:14:15;103037.72;;;8.83;100.00
64352;BME280;50680;52.626;-8.668;2023-02-03T08:16:42;103035.94;;;8.85;100.00
64352;BME280;50680;52.626;-8.668;2023-02-03T08:19:09;103034.16;;;8.87;100.00
64352;BME280;50680;52.626;-8.668;2023-02-03T08:21:36;103039.34;;;8.92;100.00
64352;BME280;50680;52.626;-8.668;2023-02-03T08:24:03;103049.78;;;8.93;100.00
64352;BME280;50680;52.626;-8.668;2023-02-03T08:26:30;103047.16;;;8.95;100.00
64352;BME280;50680;52.626;-8.668;2023-02-03T08:28:57;103043.66;;;8.93;100.00
64352;BME280;50680;52.626;-8.668;2023-02-03T08:31:24;103046.41;;;8.85;100.00
64352;BME280;50680;52.626;-8.668;2023-02-03T08:33:51;103049.06;;;8.82;100.00
64352;BME280;50680;52.626;-8.668;2023-02-03T08:36:18;103050.84;;;8.80;100.00
64352;BME280;50680;52.626;-8.668;2023-02-03T08:38:44;103054.28;;;8.82;100.00
64352;BME280;50680;52.626;-8.668;2023-02-03T08:41:13;103060.34;;;8.84;100.00
64352;BME280;50680;52.626;-8.668;2023-02-03T08:43:41;103062.94;;;8.87;100.00
64352;BME280;50680;52.626;-8.668;2023-02-03T08:46:09;103064.72;;;8.85;100.00
64352;BME280;50680;52.626;-8.668;2023-02-03T08:48:37;103066.47;;;8.84;100.00
64352;BME280;50680;52.626;-8.668;2023-02-03T08:51:12;103072.63;;;8.80;100.00
64352;BME280;50680;52.626;-8.668;2023-02-03T08:53:40;103072.69;;;8.77;100.00
64352;BME280;50680;52.626;-8.668;2023-02-03T08:56:08;103077.94;;;8.76;100.00
64352;BME280;50680;52.626;-8.668;2023-02-03T08:58:36;103078.72;;;8.82;100.00
64352;BME280;50680;52.626;-8.668;2023-02-03T09:01:11;103081.97;;;8.98;100.00
64352;BME280;50680;52.626;-8.668;2023-02-03T09:03:39;103088.75;;;9.12;100.00
64352;BME280;50680;52.626;-8.668;2023-02-03T09:06:07;103092.16;;;9.17;100.00
64352;BME280;50680;52.626;-8.668;2023-02-03T09:08:34;103090.41;;;9.19;100.00
64352;BME280;50680;52.626;-8.668;2023-02-03T09:11:01;103099.13;;;9.19;100.00
64352;BME280;50680;52.626;-8.668;2023-02-03T09:13:28;103096.44;;;9.24;100.00
64352;BME280;50680;52.626;-8.668;2023-02-03T09:15:59;103096.38;;;9.27;100.00
64352;BME280;50680;52.626;-8.668;2023-02-03T09:18:26;103098.09;;;9.30;100.00
64352;BME280;50680;52.626;-8.668;2023-02-03T09:20:59;103107.53;;;9.38;100.00
64352;BME280;50680;52.626;-8.668;2023-02-03T09:23:26;103110.06;;;9.45;100.00
64352;BME280;50680;52.626;-8.668;2023-02-03T09:25:53;103110.84;;;9.50;100.00
64352;BME280;50680;52.626;-8.668;2023-02-03T09:28:20;103102.84;;;9.59;100.00
64352;BME280;50680;52.626;-8.668;2023-02-03T09:30:47;103110.56;;;9.67;100.00
64352;BME280;50680;52.626;-8.668;2023-02-03T09:33:14;103113.88;;;9.78;100.00
64352;BME280;50680;52.626;-8.668;2023-02-03T09:35:41;103118.06;;;9.88;100.00
64352;BME280;50680;52.626;-8.668;2023-02-03T09:38:07;103121.38;;;9.98;100.00
64352;BME280;50680;52.626;-8.668;2023-02-03T09:40:35;103120.41;;;10.04;100.00
64352;BME280;50680;52.626;-8.668;2023-02-03T09:43:28;103120.28;;;10.10;100.00
64352;BME280;50680;52.626;-8.668;2023-02-03T09:46:02;103125.44;;;10.14;100.00
64352;BME280;50680;52.626;-8.668;2023-02-03T09:48:37;103133.19;;;10.21;100.00
64352;BME280;50680;52.626;-8.668;2023-02-03T09:51:37;103140.09;;;10.26;100.00
64352;BME280;50680;52.626;-8.668;2023-02-03T09:54:14;103142.75;;;10.25;100.00
64352;BME280;50680;52.626;-8.668;2023-02-03T09:56:42;103143.50;;;10.33;100.00
64352;BME280;50680;52.626;-8.668;2023-02-03T09:59:18;103142.53;;;10.37;100.00
64352;BME280;50680;52.626;-8.668;2023-02-03T10:02:01;103139.91;;;10.37;100.00
64352;BME280;50680;52.626;-8.668;2023-02-03T10:07:41;103142.53;;;10.37;100.00
64352;BME280;50680;52.626;-8.668;2023-02-03T10:13:31;103148.59;;;10.39;100.00
64352;BME280;50680;52.626;-8.668;2023-02-03T10:18:34;103145.03;;;10.43;100.00
64352;BME280;50680;52.626;-8.668;2023-02-03T10:21:10;103148.56;;;10.42;100.00
64352;BME280;50680;52.626;-8.668;2023-02-03T10:23:40;103149.38;;;10.44;100.00
64352;BME280;50680;52.626;-8.668;2023-02-03T10:26:12;103141.53;;;10.44;100.00
64352;BME280;50680;52.626;-8.668;2023-02-03T10:28:49;103136.28;;;10.44;100.00
64352;BME280;50680;52.626;-8.668;2023-02-03T10:31:19;103126.63;;;10.45;100.00
64352;BME280;50680;52.626;-8.668;2023-02-03T10:33:48;103134.47;;;10.46;100.00
64352;BME280;50680;52.626;-8.668;2023-02-03T10:36:29;103127.38;;;10.51;100.00
64352;BME280;50680;52.626;-8.668;2023-02-03T10:39:05;103118.59;;;10.54;100.00
64352;BME280;50680;52.626;-8.668;2023-02-03T10:41:34;103120.28;;;10.57;100.00
64352;BME280;50680;52.626;-8.668;2023-02-03T10:44:04;103140.06;;;10.73;100.00
64352;BME280;50680;52.626;-8.668;2023-02-03T10:46:34;103136.69;;;11.07;100.00
64352;BME280;50680;52.626;-8.668;2023-02-03T10:49:01;103139.38;;;11.43;100.00
64352;BME280;50680;52.626;-8.668;2023-02-03T10:51:33;103142.22;;;11.70;100.00
64352;BME280;50680;52.626;-8.668;2023-02-03T10:54:01;103139.09;;;11.90;100.00
64352;BME280;50680;52.626;-8.668;2023-02-03T10:56:30;103139.50;;;12.09;100.00
64352;BME280;50680;52.626;-8.668;2023-02-03T10:59:00;103144.34;;;12.24;100.00
64352;BME280;50680;52.626;-8.668;2023-02-03T11:01:39;103145.47;;;12.47;100.00
64352;BME280;50680;52.626;-8.668;2023-02-03T11:04:29;103146.78;;;12.63;100.00
64352;BME280;50680;52.626;-8.668;2023-02-03T11:06:59;103153.22;;;12.83;100.00
64352;BME280;50680;52.626;-8.668;2023-02-03T11:12:12;103149.19;;;13.29;100.00
64352;BME280;50680;52.626;-8.668;2023-02-03T11:14:50;103139.88;;;13.45;100.00
64352;BME280;50680;52.626;-8.668;2023-02-03T11:17:25;103142.19;;;13.54;100.00
64352;BME280;50680;52.626;-8.668;2023-02-03T11:20:04;103144.03;;;13.52;100.00
64352;BME280;50680;52.626;-8.668;2023-02-03T11:22:40;103141.84;;;13.39;100.00
64352;BME280;50680;52.626;-8.668;2023-02-03T11:25:19;103138.56;;;13.02;100.00
64352;BME280;50680;52.626;-8.668;2023-02-03T11:27:48;103140.78;;;12.88;100.00
64352;BME280;50680;52.626;-8.668;2023-02-03T11:30:16;103132.66;;;12.66;100.00
64352;BME280;50680;52.626;-8.668;2023-02-03T11:32:46;103142.03;;;12.45;100.00
64352;BME280;50680;52.626;-8.668;2023-02-03T11:35:24;103147.78;;;12.26;100.00
64352;BME280;50680;52.626;-8.668;2023-02-03T11:37:57;103143.31;;;12.30;100.00
64352;BME280;50680;52.626;-8.668;2023-02-03T11:40:28;103136.69;;;12.48;100.00
64352;BME280;50680;52.626;-8.668;2023-02-03T12:12:00;103138.25;;;13.68;100.00
64352;BME280;50680;52.626;-8.668;2023-02-03T12:15:37;103139.25;;;13.90;100.00
64352;BME280;50680;52.626;-8.668;2023-02-03T12:29:03;103137.69;;;13.58;100.00
64352;BME280;50680;52.626;-8.668;2023-02-03T12:31:38;103140.28;;;13.60;100.00
64352;BME280;50680;52.626;-8.668;2023-02-03T12:34:16;103142.97;;;13.58;100.00
64352;BME280;50680;52.626;-8.668;2023-02-03T12:36:50;103135.13;;;13.57;100.00
64352;BME280;50680;52.626;-8.668;2023-02-03T12:42:59;103150.63;;;13.66;100.00
64352;BME280;50680;52.626;-8.668;2023-02-03T12:45:31;103154.78;;;13.73;100.00
64352;BME280;50680;52.626;-8.668;2023-02-03T12:48:05;103152.66;;;13.58;100.00
64352;BME280;50680;52.626;-8.668;2023-02-03T12:50:39;103152.69;;;13.56;100.00
64352;BME280;50680;52.626;-8.668;2023-02-03T12:53:20;103151.09;;;13.24;100.00
64352;BME280;50680;52.626;-8.668;2023-02-03T12:56:07;103154.19;;;13.08;100.00
64352;BME280;50680;52.626;-8.668;2023-02-03T13:12:30;103177.50;;;13.77;100.00
64352;BME280;50680;52.626;-8.668;2023-02-03T13:18:14;103162.06;;;14.17;100.00
64352;BME280;50680;52.626;-8.668;2023-02-03T13:20:42;103160.19;;;14.45;100.00
64352;BME280;50680;52.626;-8.668;2023-02-03T13:23:13;103161.44;;;14.60;100.00
64352;BME280;50680;52.626;-8.668;2023-02-03T13:26:04;103167.38;;;14.65;100.00
64352;BME280;50680;52.626;-8.668;2023-02-03T13:29:02;103166.63;;;14.62;100.00
64352;BME280;50680;52.626;-8.668;2023-02-03T13:31:42;103172.34;;;14.49;100.00
64352;BME280;50680;52.626;-8.668;2023-02-03T13:34:34;103174.13;;;14.24;100.00
64352;BME280;50680;52.626;-8.668;2023-02-03T13:39:39;103175.47;;;14.36;100.00
64352;BME280;50680;52.626;-8.668;2023-02-03T13:42:31;103179.50;;;14.22;100.00
64352;BME280;50680;52.626;-8.668;2023-02-03T13:45:42;103181.91;;;14.28;100.00
64352;BME280;50680;52.626;-8.668;2023-02-03T13:48:14;103174.91;;;14.27;100.00
64352;BME280;50680;52.626;-8.668;2023-02-03T13:50:43;103176.78;;;14.24;100.00
64352;BME280;50680;52.626;-8.668;2023-02-03T13:53:20;103178.38;;;14.03;100.00
64352;BME280;50680;52.626;-8.668;2023-02-03T13:55:56;103179.41;;;13.99;100.00
64352;BME280;50680;52.626;-8.668;2023-02-03T13:58:26;103173.16;;;13.76;100.00
64352;BME280;50680;52.626;-8.668;2023-02-03T14:05:56;103200.94;;;13.30;100.00
64352;BME280;50680;52.626;-8.668;2023-02-03T14:16:51;103190.16;;;12.79;100.00
64352;BME280;50680;52.626;-8.668;2023-02-03T14:24:37;103168.28;;;12.77;100.00
64352;BME280;50680;52.626;-8.668;2023-02-03T14:27:36;103169.06;;;12.81;100.00
64352;BME280;50680;52.626;-8.668;2023-02-03T14:30:10;103168.16;;;12.82;100.00
64352;BME280;50680;52.626;-8.668;2023-02-03T14:32:55;103167.09;;;12.88;100.00
64352;BME280;50680;52.626;-8.668;2023-02-03T14:35:32;103167.75;;;12.96;100.00
64352;BME280;50680;52.626;-8.668;2023-02-03T14:38:06;103168.34;;;13.04;100.00
64352;BME280;50680;52.626;-8.668;2023-02-03T15:00:01;103151.25;;;13.74;100.00
64352;BME280;50680;52.626;-8.668;2023-02-03T15:02:30;103145.25;;;13.69;100.00
64352;BME280;50680;52.626;-8.668;2023-02-03T15:07:47;103147.44;;;13.56;100.00
64352;BME280;50680;52.626;-8.668;2023-02-03T15:10:28;103143.19;;;13.52;100.00
64352;BME280;50680;52.626;-8.668;2023-02-03T15:12:56;103140.53;;;13.52;100.00